Hauptseite
METAR-TAF:

METAR-TAF

Flughäfen :

Flugplatz Les Eplatures

La Chaux-de-Fonds, Schweiz

Breite: 47-05-03N, Länge: 006-47-37E, Höhe: 1027 m

Beobachtung

Neuester Wetterbericht von vor 22 Minuten, um 01:20 UTC
Wind 1 kt aus Nordost
Temperatur 11°C
Luftfeuchtigkeit 94%
Luftdruck 1022 hPa
Sichtweite 10 km oder mehr
keine Wolken unter 1500 m und keine Kumulonimbus oder Gewitterwolken

METAR: LSGC 180120Z AUTO 05001KT CAVOK 11/10 Q1022

Zeit: 03:42 (01:42 UTC)

Prognose

Neuester Wetterbericht von vor 11 Stunden und 17 Minuten, um 14:25 UTC
Gültige Prognose vom 17 um 15 UTC bis 17 um 24 UTC
Wind 8 kt aus Nordost
Sichtweite 10 km oder mehr
Aufgelockert bewölkt in der Höhe von 4000 ft

TAF: LSGC 171425Z 1715/1724 05008KT 9999 SCT040

Wetterbeobachtungen und Prognosen von mehr als 4000 Flughäfen (METAR und TAF Bericht).

Die verfügbaren Stationen werden durch gelbe und rote Markierungen auf der Karte dargestellt.

Führen Sie die Maus auf sie, um den Namen der Station zu sehen.

Darauf klicken, um die Beobachtung von Wetterbeobachtungen und Prognosen zu sehen.

Um die Karte zu ändern : klicken Sie auf den grünen Tasten mit einem schwarzen Kreuz Zum Vergrößern, auf den grünen Button mit einem Gedankenstrich zu verkleinern, oder auf die grünen Pfeile für benachbarte Karten.


METAR-TAF: